Bookmark and Share
Track history (hours):
 

Kaleen Mc Allister

More information available from US FCC via Universal Licensing System and Coast Guard Vessel Documentation Center.

Last reported at 2013-May-05 00:32 UTC. Time now 2014-Apr-24 02:07 UTC.
Position N 39°16' W 076°35'.
Warning: this ship's position is months out of date.

Length 31 m; draft 4 m.

Type: Tug. MMSI: 366891960.

NotesDate/timePositionNaut miles runAvg speedWind from/ knotsBaromVisibWave heightAir tempDewpointWater temp
2013-May-05 00:32N 39°16' W 076°35'0 0.0
2013-May-04 23:33N 39°16' W 076°35'0 0.0
2013-May-04 22:33N 39°16' W 076°35'0 0.0
2013-May-04 21:33N 39°16' W 076°35'0 0.0
2013-May-04 20:33N 39°16' W 076°35'0 0.0
2013-May-04 19:33N 39°16' W 076°35'1 1.2
2013-May-04 18:33N 39°15' W 076°35'1 1.2
2013-May-04 17:33N 39°14' W 076°33'0 0.5
2013-May-04 16:33N 39°15' W 076°34'2 1.6
2013-May-04 15:34N 39°16' W 076°35'0 0.0
2013-May-04 14:33N 39°16' W 076°35'0 0.0
2013-May-04 13:33N 39°16' W 076°35'3 3.0
2013-May-04 12:33N 39°13' W 076°34'1 0.8
2013-May-04 11:33N 39°13' W 076°35'2 1.9
2013-May-04 10:33N 39°14' W 076°33'2 2.1
2013-May-04 09:33N 39°16' W 076°35'0 0.0
2013-May-04 08:33N 39°16' W 076°35'0 0.0
2013-May-04 07:33N 39°16' W 076°35'0 0.0
2013-May-04 06:33N 39°16' W 076°35'0 0.0
2013-May-04 04:34N 39°16' W 076°35'0 0.0
2013-May-04 03:33N 39°16' W 076°35'0 0.0
2013-May-04 02:33N 39°16' W 076°35'0 0.0
2013-May-04 01:33N 39°16' W 076°35'0 0.0
2013-May-04 00:33N 39°16' W 076°35'0 0.0
2013-May-03 23:33N 39°16' W 076°35'1 1.2
2013-May-03 22:34N 39°15' W 076°34'1 1.2
2013-May-03 21:33N 39°16' W 076°35'0 0.0
2013-May-03 20:33N 39°16' W 076°35'0 0.0
2013-May-03 19:33N 39°16' W 076°35'0 0.0
2013-May-03 18:33N 39°16' W 076°35'0 0.0
2013-May-03 17:33N 39°16' W 076°35'0 0.0
2013-May-03 16:33N 39°16' W 076°35'0 0.0
2013-May-03 15:33N 39°16' W 076°35'2 1.5
2013-May-03 14:33N 39°15' W 076°34'2 2.4
2013-May-03 13:33N 39°13' W 076°35'1 0.8
2013-May-03 12:33N 39°13' W 076°35'0 0.0
2013-May-03 11:33N 39°13' W 076°35'2 1.6
2013-May-03 10:33N 39°15' W 076°34'2 1.7
2013-May-03 09:33N 39°16' W 076°35'0 0.5
2013-May-03 08:33N 39°16' W 076°35'0 0.0
2013-May-03 07:33N 39°16' W 076°35'0 0.0
2013-May-03 06:33N 39°16' W 076°35'0 0.0
2013-May-03 04:33N 39°16' W 076°35'0 0.0
2013-May-03 03:33N 39°16' W 076°35'0 0.0
2013-May-03 02:33N 39°16' W 076°35'0 0.0
2013-May-03 01:33N 39°16' W 076°35'0 0.0
2013-May-03 00:33N 39°16' W 076°35'3 3.0
2013-May-02 23:33N 39°14' W 076°32'0 0.1
2013-May-02 22:33N 39°14' W 076°32'4 3.5
2013-May-02 21:33N 39°16' W 076°35'2 2.2
2013-May-02 20:33N 39°15' W 076°33'2 1.7
2013-May-02 19:13N 39°13' W 076°35'2 3.1
2013-May-02 18:33N 39°14' W 076°33'2 2.2
2013-May-02 17:33N 39°16' W 076°35'0 0.0
2013-May-02 16:34N 39°16' W 076°35'0 0.3
2013-May-02 15:33N 39°16' W 076°35'0 0.3
2013-May-02 14:33N 39°16' W 076°35'0 0.0
2013-May-02 13:33N 39°16' W 076°35'0 0.0
2013-May-02 12:33N 39°16' W 076°35'0 0.0
2013-May-02 11:33N 39°16' W 076°35'1 1.4
2013-May-02 10:33N 39°15' W 076°33'1 1.1
2013-May-02 09:33N 39°15' W 076°35'3 2.5
2013-May-02 08:33N 39°14' W 076°32'0 0.0
2013-May-02 07:33N 39°14' W 076°32'0 0.0
2013-May-02 06:33N 39°14' W 076°32'0 0.0
2013-May-02 04:33N 39°14' W 076°32'3 3.0
2013-May-02 03:32N 39°13' W 076°35'2 2.2
2013-May-02 02:33N 39°14' W 076°33'1 1.4
2013-May-02 01:33N 39°15' W 076°34'1 1.0
2013-May-02 00:33N 39°16' W 076°35'0 0.0
2013-May-01 23:33N 39°16' W 076°35'0 0.0
2013-May-01 22:33N 39°16' W 076°35'0 0.0
2013-May-01 21:33N 39°16' W 076°35'0 0.0
2013-May-01 20:33N 39°16' W 076°35'0 0.0
2013-May-01 19:33N 39°16' W 076°35'1 0.8
2013-May-01 18:33N 39°17' W 076°36'0 0.4
2013-May-01 17:33N 39°16' W 076°36'0 0.0
2013-May-01 16:33N 39°16' W 076°36'3 2.5
2013-May-01 15:33N 39°15' W 076°33'2 2.2
2013-May-01 14:33N 39°13' W 076°32'4 3.7
2013-May-01 13:33N 39°16' W 076°35'0 0.0
2013-May-01 12:33N 39°16' W 076°35'0 0.0
2013-May-01 11:33N 39°16' W 076°35'0 0.0
2013-May-01 10:34N 39°16' W 076°35'0 0.0
2013-May-01 09:33N 39°16' W 076°35'0 0.0
2013-May-01 08:33N 39°16' W 076°35'0 0.0
2013-May-01 07:33N 39°16' W 076°35'0 0.0
2013-May-01 06:33N 39°16' W 076°35'0 0.0
2013-May-01 04:34N 39°16' W 076°35'0 0.0
2013-May-01 03:33N 39°16' W 076°35'0 0.0
2013-May-01 02:33N 39°16' W 076°35'0 0.0
2013-May-01 01:33N 39°16' W 076°35'0 0.0
2013-May-01 00:33N 39°16' W 076°35'0 0.0
2013-Apr-30 23:33N 39°16' W 076°35'2 1.9
2013-Apr-30 22:33N 39°15' W 076°33'1 1.4
2013-Apr-30 21:33N 39°14' W 076°32'0 0.1
2013-Apr-30 20:33N 39°14' W 076°31'3 3.1
2013-Apr-30 19:33N 39°16' W 076°35'0 0.0
2013-Apr-30 18:34N 39°16' W 076°35'0 0.0
2013-Apr-30 17:33N 39°16' W 076°35'0 0.0
2013-Apr-30 16:33N 39°16' W 076°35'0 0.0
2013-Apr-30 15:33N 39°16' W 076°35'0 0.0
2013-Apr-30 14:33N 39°16' W 076°35'0 0.0
2013-Apr-30 13:33N 39°16' W 076°35'0 0.0
2013-Apr-30 12:33N 39°16' W 076°35'0 0.0
2013-Apr-30 11:33N 39°16' W 076°35'2 1.7
2013-Apr-30 10:33N 39°15' W 076°34'1 0.7
2013-Apr-30 09:33N 39°15' W 076°35'0 0.2
2013-Apr-30 08:33N 39°15' W 076°34'3 3.0
2013-Apr-30 07:33N 39°13' W 076°32'2 2.0
2013-Apr-30 06:33N 39°15' W 076°32'1 1.1
2013-Apr-30 05:33N 39°14' W 076°33'3 2.7
2013-Apr-30 04:33N 39°16' W 076°35'0 0.1
2013-Apr-30 03:33N 39°16' W 076°35'0 0.0
2013-Apr-30 02:33N 39°16' W 076°35'0 0.0
2013-Apr-30 01:33N 39°16' W 076°35'0 0.0
2013-Apr-30 00:33N 39°16' W 076°35'1 1.1
2013-Apr-29 23:33N 39°15' W 076°35'2 2.0
2013-Apr-29 22:34N 39°14' W 076°32'2 2.3
2013-Apr-29 21:33N 39°16' W 076°34'0 0.4
2013-Apr-29 20:33N 39°16' W 076°35'0 0.0
2013-Apr-29 19:33N 39°16' W 076°35'0 0.0
2013-Apr-29 18:33N 39°16' W 076°35'0 0.0
2013-Apr-29 17:33N 39°16' W 076°35'0 0.0
2013-Apr-29 16:33N 39°16' W 076°35'0 0.0
2013-Apr-29 15:33N 39°16' W 076°35'0 0.0
2013-Apr-29 14:33N 39°16' W 076°35'0 0.0
2013-Apr-29 13:33N 39°16' W 076°35'0 0.0
2013-Apr-29 12:33N 39°16' W 076°35'0 0.0
2013-Apr-29 11:33N 39°16' W 076°35'1 1.1
2013-Apr-29 10:33N 39°15' W 076°34'1 1.1
2013-Apr-29 09:34N 39°16' W 076°35'0 0.0
2013-Apr-29 08:33N 39°16' W 076°35'0 0.0
2013-Apr-29 07:33N 39°16' W 076°35'0 0.0
2013-Apr-29 06:33N 39°16' W 076°35'0 0.0
2013-Apr-29 04:33N 39°16' W 076°35'0 0.0
2013-Apr-29 03:33N 39°16' W 076°35'0 0.0
2013-Apr-29 02:33N 39°16' W 076°35'0 0.0
2013-Apr-29 01:33N 39°16' W 076°35'0 0.0
2013-Apr-29 00:33N 39°16' W 076°35'0 0.0
2013-Apr-28 23:33N 39°16' W 076°35'0 0.0
2013-Apr-28 22:33N 39°16' W 076°35'3 3.1
2013-Apr-28 21:33N 39°14' W 076°31'1 1.0
2013-Apr-28 20:33N 39°14' W 076°33'3 2.6
2013-Apr-28 19:33N 39°16' W 076°35'0 0.0
2013-Apr-28 18:33N 39°16' W 076°35'0 0.0
2013-Apr-28 17:33N 39°16' W 076°35'0 0.0
2013-Apr-28 16:33N 39°16' W 076°35'0 0.0
2013-Apr-28 15:33N 39°16' W 076°35'0 0.0
2013-Apr-28 14:33N 39°16' W 076°35'0 0.0
2013-Apr-28 13:34N 39°16' W 076°35'0 0.0
2013-Apr-28 12:33N 39°16' W 076°35'0 0.0
2013-Apr-28 11:33N 39°16' W 076°35'0 0.0
2013-Apr-28 10:33N 39°16' W 076°35'0 0.0
2013-Apr-28 09:33N 39°16' W 076°35'0 0.0
2013-Apr-28 08:33N 39°16' W 076°35'0 0.0
2013-Apr-28 07:33N 39°16' W 076°35'0 0.0
2013-Apr-28 06:33N 39°16' W 076°35'0 0.0
2013-Apr-28 05:33N 39°16' W 076°35'0 0.0
2013-Apr-28 04:33N 39°16' W 076°35'0 0.0
2013-Apr-28 03:33N 39°16' W 076°35'0 0.0
2013-Apr-28 02:33N 39°16' W 076°35'0 0.0
2013-Apr-28 01:33N 39°16' W 076°35'0 0.0
2013-Apr-28 00:33N 39°16' W 076°35'0 0.0
2013-Apr-27 23:33N 39°16' W 076°35'0 0.0
2013-Apr-27 22:33N 39°16' W 076°35'0 0.0
2013-Apr-27 21:34N 39°16' W 076°35'0 0.0
2013-Apr-27 20:33N 39°16' W 076°35'0 0.0
2013-Apr-27 19:33N 39°16' W 076°35'0 0.0
2013-Apr-27 18:33N 39°16' W 076°35'0 0.0
2013-Apr-27 17:33N 39°16' W 076°35'0 0.0
2013-Apr-27 16:33N 39°16' W 076°35'0 0.0
2013-Apr-27 15:33N 39°16' W 076°35'0 0.0
2013-Apr-27 14:33N 39°16' W 076°35'0 0.0
2013-Apr-27 13:33N 39°16' W 076°35'0 0.0
2013-Apr-27 12:33N 39°16' W 076°35'0 0.0
2013-Apr-27 11:33N 39°16' W 076°35'0 0.0
2013-Apr-27 10:33N 39°16' W 076°35'1 1.1
2013-Apr-27 09:33N 39°15' W 076°35'1 1.2
2013-Apr-27 08:33N 39°14' W 076°33'2 2.2
2013-Apr-27 07:33N 39°16' W 076°35'0 0.0
2013-Apr-27 06:34N 39°16' W 076°35'0 0.0
2013-Apr-27 04:33N 39°16' W 076°35'1 1.2
2013-Apr-27 03:33N 39°15' W 076°35'1 0.9
2013-Apr-27 02:34N 39°16' W 076°34'0 0.4
2013-Apr-27 01:33N 39°16' W 076°35'0 0.0
2013-Apr-27 00:33N 39°16' W 076°35'0 0.0
2013-Apr-26 23:33N 39°16' W 076°35'0 0.0
2013-Apr-26 22:33N 39°16' W 076°35'0 0.0
2013-Apr-26 21:33N 39°16' W 076°35'0 0.0
2013-Apr-26 20:33N 39°16' W 076°35'0 0.0
2013-Apr-26 19:33N 39°16' W 076°35'0 0.0
2013-Apr-26 18:33N 39°16' W 076°35'3 3.0
2013-Apr-26 17:33N 39°14' W 076°32'1 1.3
2013-Apr-26 16:33N 39°13' W 076°32'4 3.9
2013-Apr-26 15:33N 39°16' W 076°35'0 0.0
2013-Apr-26 14:33N 39°16' W 076°35'0 0.0
2013-Apr-26 13:33N 39°16' W 076°35'0 0.0
2013-Apr-26 12:33N 39°16' W 076°35'0 0.0
2013-Apr-26 11:33N 39°16' W 076°35'0 0.0
2013-Apr-26 10:33N 39°16' W 076°35'2 2.1
2013-Apr-26 09:33N 39°15' W 076°33'2 1.6
2013-Apr-26 08:33N 39°13' W 076°32'3 3.3
2013-Apr-26 07:33N 39°16' W 076°35'0 0.0
2013-Apr-26 06:33N 39°16' W 076°35'0 0.0
2013-Apr-26 05:33N 39°16' W 076°35'0 0.0
2013-Apr-26 04:34N 39°16' W 076°35'0 0.4
2013-Apr-26 03:33N 39°16' W 076°34'2 2.4
2013-Apr-26 02:33N 39°14' W 076°32'0 0.1
2013-Apr-26 01:33N 39°14' W 076°32'3 2.8
2013-Apr-26 00:33N 39°16' W 076°35'0 0.0
2013-Apr-25 23:33N 39°16' W 076°35'0 0.0
2013-Apr-25 22:33N 39°16' W 076°35'0 0.0
2013-Apr-25 21:33N 39°16' W 076°35'0 0.0
2013-Apr-25 20:33N 39°16' W 076°35'0 0.0
2013-Apr-25 19:33N 39°16' W 076°35'0 0.0
2013-Apr-25 18:33N 39°16' W 076°35'0 0.0
2013-Apr-25 17:33N 39°16' W 076°35'0 0.0
2013-Apr-25 16:33N 39°16' W 076°35'0 0.0
2013-Apr-25 15:33N 39°16' W 076°35'0 0.0
2013-Apr-25 14:33N 39°16' W 076°35'0 0.0
2013-Apr-25 13:33N 39°16' W 076°35'0 0.0
2013-Apr-25 12:33N 39°16' W 076°35'0 0.0
2013-Apr-25 11:33N 39°16' W 076°35'2 1.7
2013-Apr-25 10:33N 39°15' W 076°33'2 1.7
2013-Apr-25 09:33N 39°16' W 076°35'0 0.1
2013-Apr-25 08:33N 39°16' W 076°35'0 0.0
2013-Apr-25 07:33N 39°16' W 076°35'0 0.0
2013-Apr-25 06:33N 39°16' W 076°35'0 0.0
2013-Apr-25 04:33N 39°16' W 076°35'0 0.0
2013-Apr-25 03:33N 39°16' W 076°35'0 0.0
2013-Apr-25 02:33N 39°16' W 076°35'0 0.0
2013-Apr-25 01:33N 39°16' W 076°35'0 0.4
2013-Apr-25 00:33N 39°16' W 076°34'  

Dump ship's entire track history

sailing weather and tide predictions

Kaleen Mc Allister — WDB3847 — position and weather